createdAt,value
2023-04-23T00:01:49.371Z,2.73
2023-04-23T00:04:00.328Z,6.00
2023-04-23T00:06:10.682Z,1.97
2023-04-23T00:08:20.813Z,2.13
2023-04-23T00:10:31.648Z,4.43
2023-04-23T00:12:40.900Z,5.70
2023-04-23T00:14:51.617Z,2.57
2023-04-23T00:17:00.990Z,1.93
2023-04-23T00:19:09.868Z,4.73
2023-04-23T00:21:18.882Z,2.43
2023-04-23T00:23:27.537Z,2.70
2023-04-23T00:25:38.373Z,4.40
2023-04-23T00:27:48.411Z,1.60
2023-04-23T00:29:57.384Z,3.73
2023-04-23T00:32:06.482Z,4.20
2023-04-23T00:34:15.572Z,3.87
2023-04-23T00:36:25.666Z,2.77
2023-04-23T00:38:34.826Z,3.07
2023-04-23T00:40:45.787Z,5.93
2023-04-23T00:42:55.471Z,2.43
2023-04-23T00:45:04.334Z,2.63
2023-04-23T00:47:13.374Z,4.97
2023-04-23T00:49:23.644Z,5.37
2023-04-23T00:51:33.697Z,5.40
2023-04-23T00:53:42.692Z,3.17
2023-04-23T00:55:53.104Z,3.70
2023-04-23T00:58:02.472Z,2.70
2023-04-23T01:00:14.382Z,3.37
2023-04-23T01:02:23.460Z,1.90
2023-04-23T01:04:33.360Z,4.90
2023-04-23T01:06:42.917Z,5.47
2023-04-23T01:08:52.039Z,6.10
2023-04-23T01:11:02.718Z,4.60
2023-04-23T01:13:11.945Z,1.60
2023-04-23T01:15:21.237Z,3.03
2023-04-23T01:17:30.431Z,6.30
2023-04-23T01:19:39.735Z,2.60
2023-04-23T01:21:48.359Z,4.47
2023-04-23T01:23:59.241Z,2.80
2023-04-23T01:26:08.764Z,4.90
2023-04-23T01:28:17.752Z,5.67
2023-04-23T01:30:27.476Z,3.47
2023-04-23T01:32:37.110Z,1.67
2023-04-23T01:34:46.920Z,9.37
2023-04-23T01:36:56.376Z,2.60
2023-04-23T01:39:07.107Z,4.00
2023-04-23T01:41:16.007Z,3.67
2023-04-23T01:43:25.335Z,4.83
2023-04-23T01:45:34.389Z,4.53
2023-04-23T01:47:43.668Z,3.03
2023-04-23T01:49:52.701Z,3.43
2023-04-23T01:52:01.657Z,2.80
2023-04-23T01:54:12.086Z,8.50
2023-04-23T01:56:21.789Z,5.47
2023-04-23T01:58:30.581Z,6.47
2023-04-23T02:00:39.712Z,3.57
2023-04-23T02:02:48.897Z,1.93
2023-04-23T02:04:58.502Z,2.77
2023-04-23T02:07:07.047Z,4.77
2023-04-23T02:09:17.263Z,3.00
2023-04-23T02:11:26.004Z,6.27
2023-04-23T02:13:34.812Z,5.30
2023-04-23T02:15:44.310Z,10.80
2023-04-23T02:17:53.447Z,6.00
2023-04-23T02:20:02.493Z,6.00
2023-04-23T02:22:11.688Z,5.47
2023-04-23T02:24:22.335Z,7.97
2023-04-23T02:26:31.064Z,3.57
2023-04-23T02:28:40.093Z,2.87
2023-04-23T02:30:48.739Z,2.87
2023-04-23T02:32:57.870Z,3.57
2023-04-23T02:35:08.023Z,5.13
2023-04-23T02:37:17.303Z,2.60
2023-04-23T02:39:27.900Z,4.57
2023-04-23T02:41:36.537Z,3.70
2023-04-23T02:43:45.282Z,2.90
2023-04-23T02:45:54.396Z,4.20
2023-04-23T02:48:03.641Z,3.70
2023-04-23T02:50:13.246Z,3.10
2023-04-23T02:52:22.214Z,5.30
2023-04-23T02:54:33.843Z,3.60
2023-04-23T02:56:43.572Z,3.07
2023-04-23T02:58:52.304Z,5.43
2023-04-23T03:01:01.964Z,3.40
2023-04-23T03:03:12.598Z,2.97
2023-04-23T03:05:22.005Z,4.13
2023-04-23T03:07:30.896Z,3.20
2023-04-23T03:09:42.506Z,3.30
2023-04-23T03:11:51.449Z,4.63
2023-04-23T03:14:00.059Z,5.10
2023-04-23T03:16:09.245Z,4.77
2023-04-23T03:18:18.544Z,4.07
2023-04-23T03:20:27.552Z,6.07
2023-04-23T03:22:36.240Z,4.40
2023-04-23T03:24:46.868Z,5.03
2023-04-23T03:26:56.127Z,3.47
2023-04-23T03:29:06.457Z,7.13
2023-04-23T03:31:15.563Z,2.90
2023-04-23T03:33:24.423Z,4.20
2023-04-23T03:35:33.433Z,4.57
2023-04-23T03:37:42.364Z,4.17
2023-04-23T03:39:53.163Z,3.83
2023-04-23T03:42:02.121Z,2.10
2023-04-23T03:44:11.042Z,3.13
2023-04-23T03:46:20.123Z,3.43
2023-04-23T03:48:29.181Z,4.27
2023-04-23T03:50:40.548Z,2.13
2023-04-23T03:52:49.453Z,6.07
2023-04-23T03:55:00.161Z,3.23
2023-04-23T03:57:08.907Z,1.80
2023-04-23T03:59:17.853Z,3.87
2023-04-23T04:01:26.586Z,3.00
2023-04-23T04:03:36.393Z,4.57
2023-04-23T04:05:46.160Z,2.43
2023-04-23T04:07:55.398Z,2.67
2023-04-23T04:10:06.312Z,4.43
2023-04-23T04:12:15.327Z,3.10
2023-04-23T04:14:24.352Z,3.57
2023-04-23T04:16:33.435Z,3.57
2023-04-23T04:18:42.879Z,2.87
2023-04-23T04:20:52.706Z,3.27
2023-04-23T04:23:01.470Z,3.83
2023-04-23T04:25:12.555Z,3.47
2023-04-23T04:27:21.641Z,4.70
2023-04-23T04:29:31.194Z,5.43
2023-04-23T04:31:40.169Z,4.47
2023-04-23T04:33:48.697Z,6.30
2023-04-23T04:35:57.617Z,3.00
2023-04-23T04:38:06.545Z,5.50
2023-04-23T04:40:17.380Z,3.70
2023-04-23T04:42:26.175Z,2.87
2023-04-23T04:44:37.903Z,3.60
2023-04-23T04:48:57.378Z,9.30
2023-04-23T04:51:06.605Z,5.87
2023-04-23T04:53:15.715Z,3.43
2023-04-23T04:55:27.569Z,3.47
2023-04-23T04:57:36.642Z,4.40
2023-04-23T04:59:45.471Z,5.53
2023-04-23T05:01:54.030Z,3.60
2023-04-23T05:04:03.074Z,5.20
2023-04-23T05:06:12.176Z,4.63
2023-04-23T05:08:21.957Z,4.63
2023-04-23T05:10:32.733Z,8.03
2023-04-23T05:12:42.210Z,6.80
2023-04-23T05:14:52.239Z,4.63
2023-04-23T05:17:02.023Z,3.90
2023-04-23T05:19:10.890Z,3.80
2023-04-23T05:21:19.743Z,5.83
2023-04-23T05:23:28.685Z,8.53
2023-04-23T05:25:39.572Z,2.50
2023-04-23T05:27:48.285Z,4.43
2023-04-23T05:29:57.282Z,3.30
2023-04-23T05:32:06.172Z,4.33
2023-04-23T05:34:15.210Z,4.87
2023-04-23T05:36:24.061Z,2.83
2023-04-23T05:38:33.335Z,3.90
2023-04-23T05:40:43.749Z,5.73
2023-04-23T05:42:52.622Z,2.77
2023-04-23T05:45:01.565Z,2.10
2023-04-23T05:47:10.820Z,2.47
2023-04-23T05:49:19.676Z,2.33
2023-04-23T05:51:28.849Z,5.23
2023-04-23T05:53:37.960Z,2.63
2023-04-23T05:55:48.420Z,2.70
2023-04-23T05:57:57.483Z,3.20
2023-04-23T06:00:09.765Z,2.97
2023-04-23T06:02:19.068Z,5.33
2023-04-23T06:04:28.817Z,3.77
2023-04-23T06:06:37.684Z,6.23
2023-04-23T06:08:46.562Z,4.87
2023-04-23T06:10:57.401Z,5.37
2023-04-23T06:13:06.556Z,4.43
2023-04-23T06:15:15.411Z,2.50
2023-04-23T06:17:24.394Z,3.93
2023-04-23T06:19:33.161Z,3.40
2023-04-23T06:21:42.091Z,5.17
2023-04-23T06:23:51.395Z,3.93
2023-04-23T06:26:02.203Z,3.93
2023-04-23T06:28:11.124Z,2.67
2023-04-23T06:30:21.134Z,4.27
2023-04-23T06:32:29.889Z,4.07
2023-04-23T06:34:53.146Z,3.03
2023-04-23T06:37:08.930Z,5.03
2023-04-23T06:39:18.163Z,3.20
2023-04-23T06:41:29.088Z,3.83
2023-04-23T06:43:38.419Z,3.33
2023-04-23T06:45:47.439Z,3.13
2023-04-23T06:47:56.531Z,5.20
2023-04-23T06:50:06.013Z,3.60
2023-04-23T06:52:15.183Z,2.07
2023-04-23T06:54:24.170Z,3.07
2023-04-23T06:56:34.987Z,4.97
2023-04-23T06:58:44.128Z,2.93
2023-04-23T07:00:53.361Z,3.03
2023-04-23T07:03:02.732Z,4.03
2023-04-23T07:05:12.191Z,6.60
2023-04-23T07:07:23.264Z,2.83
2023-04-23T07:09:32.685Z,4.83
2023-04-23T07:11:43.183Z,2.73
2023-04-23T07:13:52.425Z,5.33
2023-04-23T07:16:01.058Z,3.83
2023-04-23T07:18:10.632Z,1.93
2023-04-23T07:20:19.607Z,3.33
2023-04-23T07:22:30.442Z,2.87
2023-04-23T07:24:39.652Z,3.87
2023-04-23T07:26:50.529Z,5.23
2023-04-23T07:29:00.049Z,4.10
2023-04-23T07:31:09.287Z,3.23
2023-04-23T07:33:18.801Z,5.80
2023-04-23T07:35:28.154Z,6.27
2023-04-23T07:37:37.227Z,5.57
2023-04-23T07:39:46.633Z,4.03
2023-04-23T07:41:59.004Z,8.13
2023-04-23T07:44:08.342Z,4.10
2023-04-23T07:46:17.140Z,3.17
2023-04-23T07:48:25.907Z,3.80
2023-04-23T07:50:34.983Z,2.87
2023-04-23T07:52:43.906Z,7.03
2023-04-23T07:54:53.244Z,6.93
2023-04-23T07:57:04.491Z,5.10
2023-04-23T07:59:13.399Z,5.40
2023-04-23T08:01:22.527Z,4.33
2023-04-23T08:03:31.869Z,2.57
2023-04-23T08:05:41.397Z,3.77
2023-04-23T08:07:50.004Z,2.97
2023-04-23T08:10:03.451Z,3.07
2023-04-23T08:12:13.865Z,2.47
2023-04-23T08:14:22.885Z,2.77
2023-04-23T08:16:32.077Z,4.10
2023-04-23T08:18:42.062Z,2.37
2023-04-23T08:20:51.466Z,3.40
2023-04-23T08:23:00.896Z,6.10
2023-04-23T08:25:10.222Z,6.03
2023-04-23T08:27:21.386Z,4.73
2023-04-23T08:29:30.018Z,4.33
2023-04-23T08:31:39.083Z,3.20
2023-04-23T08:33:48.032Z,2.93
2023-04-23T08:35:57.208Z,2.80
2023-04-23T08:38:06.199Z,2.70
2023-04-23T08:40:15.318Z,4.90
2023-04-23T08:42:29.487Z,3.63
2023-04-23T08:44:38.417Z,2.90
2023-04-23T08:46:47.638Z,4.13
2023-04-23T08:49:01.578Z,3.23
2023-04-23T08:51:11.756Z,3.67
2023-04-23T08:53:21.380Z,3.40
2023-04-23T08:55:30.824Z,3.30
2023-04-23T08:57:42.138Z,3.40
2023-04-23T08:59:52.567Z,3.80
2023-04-23T09:02:08.434Z,3.27
2023-04-23T09:04:20.568Z,4.97
2023-04-23T09:06:29.558Z,3.23
2023-04-23T09:08:39.452Z,3.03
2023-04-23T09:10:48.733Z,8.70
2023-04-23T09:12:59.548Z,2.60
2023-04-23T09:15:11.308Z,3.00
2023-04-23T09:17:20.906Z,3.93
2023-04-23T09:19:30.860Z,4.63
2023-04-23T09:21:41.217Z,4.23
2023-04-23T09:23:53.810Z,4.43
2023-04-23T09:26:03.050Z,4.73
2023-04-23T09:28:15.196Z,4.37
2023-04-23T09:30:25.637Z,6.73
2023-04-23T09:32:34.642Z,2.30
2023-04-23T09:34:43.758Z,4.20
2023-04-23T09:36:54.171Z,4.87
2023-04-23T09:39:03.190Z,2.87
2023-04-23T09:41:25.201Z,5.50
2023-04-23T09:43:35.811Z,3.87
2023-04-23T09:45:51.347Z,2.00
2023-04-23T09:48:00.841Z,4.70
2023-04-23T09:50:10.879Z,3.43
2023-04-23T09:52:21.171Z,5.63
2023-04-23T09:54:29.699Z,3.27
2023-04-23T09:56:38.882Z,3.60
2023-04-23T09:58:49.607Z,4.77
2023-04-23T10:01:08.921Z,3.83
2023-04-23T10:03:18.607Z,6.90
2023-04-23T10:05:31.563Z,4.63
2023-04-23T10:07:49.110Z,6.30
2023-04-23T10:09:58.115Z,4.23
2023-04-23T10:12:13.324Z,3.33
2023-04-23T10:14:31.687Z,3.20
2023-04-23T10:16:48.579Z,3.90
2023-04-23T10:19:02.139Z,4.10
2023-04-23T10:21:11.608Z,2.93
2023-04-23T10:23:22.158Z,4.80
2023-04-23T10:25:31.406Z,4.33
2023-04-23T10:27:52.820Z,3.27
2023-04-23T10:30:06.381Z,4.27
2023-04-23T10:32:16.221Z,3.30
2023-04-23T10:34:25.979Z,3.73
2023-04-23T10:36:35.342Z,3.37
2023-04-23T10:38:56.779Z,2.87
2023-04-23T10:41:07.180Z,1.83
2023-04-23T10:43:16.370Z,3.73
2023-04-23T10:45:26.978Z,3.77
2023-04-23T10:47:35.796Z,1.93
2023-04-23T10:49:45.054Z,2.23
2023-04-23T10:54:13.951Z,3.57
2023-04-23T10:56:23.352Z,3.63
2023-04-23T10:58:49.816Z,2.57
2023-04-23T11:01:00.840Z,3.73
2023-04-23T11:03:29.288Z,2.40
2023-04-23T11:05:38.375Z,2.43
2023-04-23T11:08:18.171Z,4.80
2023-04-23T11:10:28.239Z,2.17
2023-04-23T11:12:36.848Z,2.87
2023-04-23T11:14:49.890Z,4.83
2023-04-23T11:17:00.805Z,1.50
2023-04-23T11:19:12.983Z,5.23
2023-04-23T11:21:21.938Z,2.70
2023-04-23T11:23:33.451Z,3.93
2023-04-23T11:25:44.283Z,2.70
2023-04-23T11:27:53.739Z,1.87
2023-04-23T11:30:03.048Z,7.13
2023-04-23T11:32:14.570Z,3.47
2023-04-23T11:34:25.702Z,5.00
2023-04-23T11:36:34.798Z,4.20
2023-04-23T11:38:43.997Z,3.07
2023-04-23T11:40:54.560Z,4.53
2023-04-23T11:43:04.510Z,4.47
2023-04-23T11:45:17.714Z,4.87
2023-04-23T11:47:28.758Z,2.10
2023-04-23T11:49:40.283Z,2.53
2023-04-23T11:51:50.652Z,1.70
2023-04-23T11:54:05.006Z,3.43
2023-04-23T11:56:13.868Z,3.17
2023-04-23T11:58:22.501Z,3.73
2023-04-23T12:00:31.674Z,3.90
2023-04-23T12:02:51.728Z,2.80
2023-04-23T12:05:01.259Z,3.00
2023-04-23T12:07:23.039Z,6.03
2023-04-23T12:09:36.408Z,4.40
2023-04-23T12:11:45.992Z,3.80
2023-04-23T12:13:55.045Z,5.07
2023-04-23T12:16:05.315Z,5.17
2023-04-23T12:18:16.195Z,3.43
2023-04-23T12:20:25.681Z,3.33
2023-04-23T12:22:34.977Z,3.40
2023-04-23T12:24:51.891Z,4.40
2023-04-23T12:27:03.164Z,3.30
2023-04-23T12:29:12.375Z,1.83
2023-04-23T12:31:21.833Z,4.83
2023-04-23T12:33:32.720Z,5.20
2023-04-23T12:35:42.430Z,4.33
2023-04-23T12:37:51.612Z,3.03
2023-04-23T12:40:00.369Z,2.97
2023-04-23T12:42:10.557Z,3.40
2023-04-23T12:44:19.778Z,4.27
2023-04-23T12:46:28.976Z,3.20
2023-04-23T12:48:40.933Z,5.60
2023-04-23T12:50:51.405Z,5.20
2023-04-23T12:53:00.964Z,4.43
2023-04-23T12:55:10.101Z,4.73
2023-04-23T12:57:22.040Z,4.73
2023-04-23T12:59:30.940Z,2.90
2023-04-23T13:01:39.943Z,5.10
2023-04-23T13:03:51.004Z,3.60
2023-04-23T13:06:00.306Z,4.53
2023-04-23T13:08:09.287Z,3.80
2023-04-23T13:10:18.052Z,5.93
2023-04-23T13:12:26.696Z,4.47
2023-04-23T13:14:36.564Z,4.53
2023-04-23T13:16:46.016Z,3.70
2023-04-23T13:18:57.266Z,6.13
2023-04-23T13:21:06.424Z,3.73
2023-04-23T13:23:15.422Z,7.43
2023-04-23T13:25:25.790Z,6.93
2023-04-23T13:27:34.577Z,3.63
2023-04-23T13:29:44.305Z,7.13
2023-04-23T13:31:53.858Z,3.00
2023-04-23T13:34:04.982Z,4.53
2023-04-23T13:36:14.397Z,3.47
2023-04-23T13:38:23.817Z,4.63
2023-04-23T13:40:32.791Z,4.07
2023-04-23T13:42:41.746Z,4.30
2023-04-23T13:44:50.930Z,2.90
2023-04-23T13:47:00.418Z,5.33
2023-04-23T13:49:11.401Z,4.77
2023-04-23T13:51:33.806Z,7.03
2023-04-23T13:53:44.066Z,4.67
2023-04-23T13:55:52.743Z,4.33
2023-04-23T13:58:01.616Z,5.57
2023-04-23T14:00:13.136Z,5.00
2023-04-23T14:02:21.850Z,4.27
2023-04-23T14:04:32.439Z,4.20
2023-04-23T14:06:41.603Z,7.80
2023-04-23T14:08:50.918Z,4.27
2023-04-23T14:11:00.053Z,3.67
2023-04-23T14:13:09.299Z,4.67
2023-04-23T14:15:18.400Z,2.83
2023-04-23T14:17:27.454Z,4.87
2023-04-23T14:19:38.703Z,4.63
2023-04-23T14:21:49.420Z,4.77
2023-04-23T14:23:59.405Z,4.60
2023-04-23T14:26:11.337Z,3.93
2023-04-23T14:28:26.572Z,3.73
2023-04-23T14:30:37.130Z,5.80
2023-04-23T14:32:49.602Z,4.23
2023-04-23T14:35:00.720Z,4.03
2023-04-23T14:37:09.413Z,6.07
2023-04-23T14:39:18.827Z,5.30
2023-04-23T14:41:28.069Z,2.97
2023-04-23T14:43:38.069Z,5.37
2023-04-23T14:45:47.337Z,3.90
2023-04-23T14:47:56.166Z,3.50
2023-04-23T14:50:07.477Z,6.43
2023-04-23T14:52:16.518Z,4.57
2023-04-23T14:54:26.035Z,9.40
2023-04-23T14:56:34.955Z,4.23
2023-04-23T14:58:43.506Z,6.03
2023-04-23T15:00:52.683Z,6.60
2023-04-23T15:03:02.726Z,7.30
2023-04-23T15:05:16.196Z,3.80
2023-04-23T15:07:25.117Z,4.57
2023-04-23T15:09:34.342Z,7.40
2023-04-23T15:11:43.878Z,4.57
2023-04-23T15:13:58.482Z,4.17
2023-04-23T15:16:11.386Z,4.30
2023-04-23T15:18:21.531Z,4.97
2023-04-23T15:20:32.277Z,6.40
2023-04-23T15:22:41.468Z,6.17
2023-04-23T15:24:50.229Z,16.90
2023-04-23T15:26:59.845Z,5.03
2023-04-23T15:29:10.426Z,6.50
2023-04-23T15:31:19.340Z,12.47
2023-04-23T15:33:28.330Z,8.17
2023-04-23T15:35:43.053Z,8.93
2023-04-23T15:37:52.117Z,6.87
2023-04-23T15:40:01.118Z,10.30
2023-04-23T15:42:11.483Z,5.57
2023-04-23T15:44:20.653Z,8.23
2023-04-23T15:46:29.866Z,5.43
2023-04-23T15:48:39.009Z,6.23
2023-04-23T15:50:49.806Z,9.67
2023-04-23T15:52:59.543Z,9.47
2023-04-23T15:55:08.991Z,6.03
2023-04-23T15:57:17.920Z,9.03
2023-04-23T15:59:27.144Z,6.13
2023-04-23T16:01:36.437Z,6.83
2023-04-23T16:03:57.520Z,10.33
2023-04-23T16:06:16.108Z,8.10
2023-04-23T16:08:24.926Z,9.67
2023-04-23T16:10:34.802Z,8.20
2023-04-23T16:12:45.790Z,6.77
2023-04-23T16:14:54.672Z,7.10
2023-04-23T16:17:03.698Z,8.37
2023-04-23T16:19:12.832Z,8.87
2023-04-23T16:21:24.065Z,10.30
2023-04-23T16:23:32.879Z,9.53
2023-04-23T16:25:41.792Z,10.43
2023-04-23T16:27:51.325Z,10.50
2023-04-23T16:30:00.608Z,7.47
2023-04-23T16:32:09.636Z,10.23
2023-04-23T16:34:18.303Z,9.00
2023-04-23T16:36:29.339Z,13.67
2023-04-23T16:38:38.265Z,9.40
2023-04-23T16:40:47.526Z,13.13
2023-04-23T16:42:56.123Z,9.77
2023-04-23T16:45:05.556Z,17.57
2023-04-23T16:47:14.803Z,10.70
2023-04-23T16:49:23.599Z,10.27
2023-04-23T16:51:34.501Z,11.47
2023-04-23T16:53:43.492Z,14.90
2023-04-23T16:55:52.780Z,10.23
2023-04-23T16:58:01.729Z,10.90
2023-04-23T17:00:12.659Z,10.87
2023-04-23T17:02:21.807Z,12.70
2023-04-23T17:04:30.863Z,11.70
2023-04-23T17:06:41.352Z,10.33
2023-04-23T17:08:50.256Z,10.57
2023-04-23T17:10:59.312Z,12.67
2023-04-23T17:13:08.518Z,10.50
2023-04-23T17:15:20.854Z,11.73
2023-04-23T17:17:29.904Z,12.67
2023-04-23T17:19:38.934Z,12.20
2023-04-23T17:21:49.345Z,15.50
2023-04-23T17:23:58.563Z,9.47
2023-04-23T17:26:10.470Z,9.50
2023-04-23T17:28:21.214Z,12.87
2023-04-23T17:30:30.328Z,11.37
2023-04-23T17:32:39.498Z,12.00
2023-04-23T17:34:56.449Z,11.23
2023-04-23T17:37:13.622Z,11.40
2023-04-23T17:39:23.846Z,9.87
2023-04-23T17:41:32.943Z,11.87
2023-04-23T17:43:41.755Z,11.70
2023-04-23T17:45:50.908Z,11.23
2023-04-23T17:48:00.499Z,10.67
2023-04-23T17:50:12.060Z,11.83
2023-04-23T17:52:22.360Z,11.47
2023-04-23T17:54:31.969Z,11.03
2023-04-23T17:56:41.789Z,9.63
2023-04-23T17:58:50.605Z,11.10
2023-04-23T18:00:59.559Z,12.40
2023-04-23T18:03:08.834Z,11.67
2023-04-23T18:05:19.986Z,11.93
2023-04-23T18:07:30.550Z,9.03
2023-04-23T18:09:39.658Z,11.97
2023-04-23T18:11:48.568Z,15.13
2023-04-23T18:13:57.994Z,13.07
2023-04-23T18:16:07.110Z,12.10
2023-04-23T18:18:15.744Z,14.10
2023-04-23T18:20:26.497Z,15.47
2023-04-23T18:22:37.813Z,12.73
2023-04-23T18:24:47.128Z,13.60
2023-04-23T18:26:58.723Z,16.57
2023-04-23T18:29:08.163Z,13.07
2023-04-23T18:31:17.052Z,16.50
2023-04-23T18:33:33.150Z,15.37
2023-04-23T18:35:44.270Z,17.43
2023-04-23T18:37:57.611Z,15.93
2023-04-23T18:40:06.970Z,15.73
2023-04-23T18:42:16.629Z,16.00
2023-04-23T18:44:25.321Z,18.40
2023-04-23T18:46:34.459Z,17.13
2023-04-23T18:48:48.884Z,14.73
2023-04-23T18:50:59.720Z,15.93
2023-04-23T18:53:10.633Z,15.27
2023-04-23T18:55:19.584Z,15.90
2023-04-23T18:57:28.884Z,18.47
2023-04-23T18:59:38.288Z,20.27
2023-04-23T19:01:48.302Z,19.50
2023-04-23T19:03:57.986Z,18.10
2023-04-23T19:06:08.035Z,19.97
2023-04-23T19:08:18.662Z,19.30
2023-04-23T19:10:27.681Z,20.83
2023-04-23T19:12:36.696Z,20.10
2023-04-23T19:14:45.775Z,21.03
2023-04-23T19:16:55.105Z,19.60
2023-04-23T19:19:03.934Z,21.50
2023-04-23T19:21:12.969Z,19.63
2023-04-23T19:23:23.648Z,19.47
2023-04-23T19:25:32.847Z,26.13
2023-04-23T19:27:41.686Z,21.57
2023-04-23T19:29:52.602Z,24.20
2023-04-23T19:32:01.714Z,21.87
2023-04-23T19:34:10.556Z,26.43
2023-04-23T19:36:20.151Z,20.77
2023-04-23T19:38:30.390Z,24.77
2023-04-23T19:40:39.538Z,21.67
2023-04-23T19:42:48.747Z,22.87
2023-04-23T19:44:57.855Z,21.17
2023-04-23T19:47:06.792Z,22.43
2023-04-23T19:49:16.008Z,27.77
2023-04-23T19:51:28.136Z,23.67
2023-04-23T19:53:38.832Z,23.97
2023-04-23T19:55:47.649Z,26.63
2023-04-23T19:57:56.884Z,24.33
2023-04-23T20:00:07.261Z,23.97
2023-04-23T20:02:17.209Z,22.90
2023-04-23T20:04:26.316Z,26.63
2023-04-23T20:06:35.594Z,26.43
2023-04-23T20:09:06.349Z,25.93
2023-04-23T20:11:15.368Z,25.60
2023-04-23T20:13:24.840Z,29.23
2023-04-23T20:15:34.269Z,27.07
2023-04-23T20:17:43.336Z,24.50
2023-04-23T20:19:52.430Z,29.47
2023-04-23T20:22:01.244Z,28.27
2023-04-23T20:24:12.714Z,25.77
2023-04-23T20:26:22.613Z,29.83
2023-04-23T20:28:31.630Z,30.23
2023-04-23T20:30:40.593Z,28.53
2023-04-23T20:32:49.528Z,31.87
2023-04-23T20:35:00.059Z,28.67
2023-04-23T20:37:09.499Z,27.87
2023-04-23T20:39:24.127Z,29.43
2023-04-23T20:41:34.600Z,29.27
2023-04-23T20:43:45.230Z,32.83
2023-04-23T20:45:54.435Z,29.27
2023-04-23T20:48:03.833Z,31.30
2023-04-23T20:50:14.128Z,32.07
2023-04-23T20:52:23.504Z,32.30
2023-04-23T20:54:34.596Z,27.33
2023-04-23T20:56:43.468Z,35.27
2023-04-23T20:58:52.843Z,28.23
2023-04-23T21:01:01.819Z,28.20
2023-04-23T21:03:10.734Z,27.03
2023-04-23T21:05:21.258Z,28.63
2023-04-23T21:07:30.107Z,26.07
2023-04-23T21:09:41.386Z,31.23
2023-04-23T21:11:51.241Z,28.50
2023-04-23T21:14:00.925Z,28.97
2023-04-23T21:16:11.653Z,28.33
2023-04-23T21:18:20.652Z,30.43
2023-04-23T21:20:29.723Z,28.30
2023-04-23T21:22:39.256Z,29.13
2023-04-23T21:24:49.705Z,31.63
2023-04-23T21:26:59.185Z,30.93
2023-04-23T21:29:08.033Z,26.93
2023-04-23T21:31:19.351Z,23.90
2023-04-23T21:33:28.262Z,24.50
2023-04-23T21:35:36.789Z,27.83
2023-04-23T21:37:45.339Z,25.47
2023-04-23T21:39:55.951Z,24.97
2023-04-23T21:42:04.919Z,26.97
2023-04-23T21:44:13.925Z,26.63
2023-04-23T21:46:23.059Z,27.10
2023-04-23T21:48:33.479Z,26.73
2023-04-23T21:50:42.585Z,28.77
2023-04-23T21:52:53.466Z,31.20
2023-04-23T21:55:03.737Z,21.37
2023-04-23T21:57:12.590Z,21.87
2023-04-23T21:59:23.695Z,21.17
2023-04-23T22:01:34.362Z,19.60
2023-04-23T22:03:47.576Z,15.53
2023-04-23T22:05:56.987Z,11.47
2023-04-23T22:08:07.283Z,11.90
2023-04-23T22:10:18.573Z,10.80
2023-04-23T22:12:27.469Z,11.23
2023-04-23T22:14:36.922Z,9.13
2023-04-23T22:16:46.634Z,8.57
2023-04-23T22:18:55.496Z,9.17
2023-04-23T22:21:04.520Z,7.13
2023-04-23T22:23:13.404Z,8.00
2023-04-23T22:25:23.626Z,9.40
2023-04-23T22:27:34.777Z,9.17
2023-04-23T22:29:44.096Z,11.63
2023-04-23T22:31:53.055Z,7.10
2023-04-23T22:34:01.905Z,10.30
2023-04-23T22:36:11.301Z,7.30
2023-04-23T22:38:20.537Z,7.37
2023-04-23T22:40:31.025Z,7.80
2023-04-23T22:42:40.386Z,6.83
2023-04-23T22:44:49.398Z,5.03
2023-04-23T22:46:58.521Z,7.07
2023-04-23T22:49:11.297Z,7.13
2023-04-23T22:51:20.572Z,8.53
2023-04-23T22:53:29.392Z,8.63
2023-04-23T22:55:40.436Z,5.67
2023-04-23T22:57:49.387Z,5.23
2023-04-23T22:59:58.318Z,6.60
2023-04-23T23:02:07.712Z,6.17
2023-04-23T23:04:16.795Z,5.23
2023-04-23T23:06:26.673Z,5.00
2023-04-23T23:08:35.312Z,4.67
2023-04-23T23:10:45.809Z,6.33
2023-04-23T23:12:54.637Z,5.50
2023-04-23T23:15:03.860Z,5.20
2023-04-23T23:17:12.886Z,6.70
2023-04-23T23:19:22.081Z,6.37
2023-04-23T23:21:32.559Z,6.00
2023-04-23T23:23:41.925Z,4.80
2023-04-23T23:25:52.804Z,4.73
2023-04-23T23:28:01.735Z,3.80
2023-04-23T23:30:11.474Z,4.17
2023-04-23T23:32:20.250Z,5.90
2023-04-23T23:34:28.858Z,4.70
2023-04-23T23:36:37.880Z,5.87
2023-04-23T23:38:46.616Z,5.23
2023-04-23T23:40:57.117Z,4.17
2023-04-23T23:43:06.251Z,4.37
2023-04-23T23:45:15.143Z,6.43
2023-04-23T23:47:24.185Z,4.00
2023-04-23T23:49:33.049Z,4.90
2023-04-23T23:51:42.128Z,4.77
2023-04-23T23:53:51.190Z,3.87
2023-04-23T23:56:02.192Z,4.20
2023-04-23T23:58:11.434Z,3.70
